createdAt,value
2023-05-05T00:02:23.223Z,7.76
2023-05-05T00:04:49.600Z,7.88
2023-05-05T00:07:15.982Z,7.92
2023-05-05T00:09:42.976Z,7.69
2023-05-05T00:12:09.351Z,7.62
2023-05-05T00:14:35.684Z,7.74
2023-05-05T00:17:02.124Z,7.75
2023-05-05T00:19:28.517Z,7.83
2023-05-05T00:21:54.865Z,7.88
2023-05-05T00:24:21.198Z,7.57
2023-05-05T00:26:47.635Z,7.56
2023-05-05T00:29:14.047Z,7.57
2023-05-05T00:31:40.661Z,7.68
2023-05-05T00:34:07.108Z,7.79
2023-05-05T00:36:33.516Z,7.63
2023-05-05T00:38:59.897Z,7.57
2023-05-05T00:41:26.725Z,7.48
2023-05-05T00:43:53.159Z,7.33
2023-05-05T00:46:24.607Z,7.28
2023-05-05T00:48:51.578Z,7.40
2023-05-05T00:51:19.882Z,7.42
2023-05-05T00:53:47.075Z,7.37
2023-05-05T00:56:14.458Z,7.38
2023-05-05T00:58:41.574Z,7.34
2023-05-05T01:01:07.987Z,7.33
2023-05-05T01:03:37.400Z,7.29
2023-05-05T01:06:25.388Z,7.36
2023-05-05T01:09:02.048Z,7.41
2023-05-05T01:11:39.291Z,7.38
2023-05-05T01:14:32.599Z,7.36
2023-05-05T01:17:00.233Z,7.44
2023-05-05T01:19:48.968Z,7.32
2023-05-05T01:22:19.959Z,7.25
2023-05-05T01:25:01.381Z,7.29
2023-05-05T01:27:53.035Z,7.28
2023-05-05T01:30:25.324Z,7.29
2023-05-05T01:32:56.721Z,7.28
2023-05-05T01:35:29.897Z,7.33
2023-05-05T01:38:05.586Z,7.28
2023-05-05T01:40:37.714Z,7.24
2023-05-05T01:43:07.427Z,7.22
2023-05-05T01:45:36.730Z,7.22
2023-05-05T01:48:06.291Z,7.29
2023-05-05T01:50:33.800Z,7.26
2023-05-05T01:53:02.431Z,7.22
2023-05-05T01:55:30.585Z,7.28
2023-05-05T01:57:58.726Z,7.33
2023-05-05T02:00:27.011Z,7.33
2023-05-05T02:02:56.757Z,7.24
2023-05-05T02:05:24.684Z,7.33
2023-05-05T02:07:54.779Z,7.22
2023-05-05T02:10:21.495Z,7.22
2023-05-05T02:12:48.847Z,7.20
2023-05-05T02:15:16.572Z,7.16
2023-05-05T02:17:43.409Z,7.20
2023-05-05T02:20:13.951Z,7.23
2023-05-05T02:22:41.014Z,7.20
2023-05-05T02:25:08.672Z,7.18
2023-05-05T02:27:35.667Z,7.23
2023-05-05T02:30:08.703Z,7.21
2023-05-05T02:32:39.799Z,7.22
2023-05-05T02:35:20.908Z,7.24
2023-05-05T02:37:51.376Z,7.33
2023-05-05T02:40:22.398Z,7.40
2023-05-05T02:42:50.337Z,7.40
2023-05-05T02:45:19.890Z,7.32
2023-05-05T02:47:46.237Z,7.35
2023-05-05T02:50:12.722Z,7.41
2023-05-05T02:52:39.629Z,7.54
2023-05-05T02:55:06.596Z,7.50
2023-05-05T02:57:35.896Z,7.52
2023-05-05T03:00:36.915Z,7.48
2023-05-05T03:03:16.581Z,7.49
2023-05-05T03:05:55.672Z,7.53
2023-05-05T03:08:43.615Z,7.56
2023-05-05T03:11:52.262Z,7.55
2023-05-05T03:14:21.364Z,7.58
2023-05-05T03:16:49.295Z,7.55
2023-05-05T03:19:20.190Z,7.61
2023-05-05T03:21:47.715Z,7.60
2023-05-05T03:24:18.601Z,7.62
2023-05-05T03:26:46.520Z,7.64
2023-05-05T03:29:13.922Z,7.63
2023-05-05T03:31:41.065Z,7.63
2023-05-05T03:34:07.952Z,7.66
2023-05-05T03:36:35.356Z,7.68
2023-05-05T03:39:01.754Z,7.71
2023-05-05T03:41:28.414Z,7.72
2023-05-05T03:43:54.779Z,7.79
2023-05-05T03:46:21.305Z,7.80
2023-05-05T03:48:48.496Z,7.81
2023-05-05T03:51:15.014Z,7.93
2023-05-05T03:53:41.570Z,7.92
2023-05-05T03:56:08.078Z,7.99
2023-05-05T03:58:34.445Z,7.93
2023-05-05T04:01:00.825Z,7.93
2023-05-05T04:03:27.418Z,8.02
2023-05-05T04:05:53.892Z,8.09
2023-05-05T04:08:20.307Z,8.04
2023-05-05T04:10:46.669Z,7.87
2023-05-05T04:13:13.123Z,7.80
2023-05-05T04:15:44.581Z,7.92
2023-05-05T04:18:11.283Z,8.02
2023-05-05T04:20:37.751Z,8.09
2023-05-05T04:23:04.362Z,8.19
2023-05-05T04:25:30.762Z,8.25
2023-05-05T04:27:57.140Z,8.17
2023-05-05T04:30:23.508Z,8.12
2023-05-05T04:32:49.946Z,8.16
2023-05-05T04:35:16.475Z,8.27
2023-05-05T04:37:42.796Z,8.38
2023-05-05T04:40:09.784Z,8.42
2023-05-05T04:42:36.609Z,8.65
2023-05-05T04:45:03.131Z,8.95
2023-05-05T04:47:29.471Z,9.00
2023-05-05T04:49:56.058Z,9.00
2023-05-05T04:52:22.428Z,9.00
2023-05-05T04:54:48.789Z,9.05
2023-05-05T04:57:15.163Z,9.23
2023-05-05T04:59:41.515Z,9.12
2023-05-05T05:02:07.923Z,9.01
2023-05-05T05:04:34.309Z,9.15
2023-05-05T05:07:01.498Z,9.30
2023-05-05T05:09:27.865Z,9.46
2023-05-05T05:11:54.211Z,9.64
2023-05-05T05:14:20.652Z,9.82
2023-05-05T05:16:51.038Z,10.00
2023-05-05T05:19:17.596Z,10.22
2023-05-05T05:21:43.956Z,10.39
2023-05-05T05:24:11.507Z,10.37
2023-05-05T05:26:38.214Z,10.66
2023-05-05T05:29:04.813Z,10.98
2023-05-05T05:31:31.221Z,10.99
2023-05-05T05:33:57.573Z,11.11
2023-05-05T05:36:23.974Z,11.28
2023-05-05T05:38:50.320Z,11.56
2023-05-05T05:41:17.467Z,11.46
2023-05-05T05:43:43.817Z,11.64
2023-05-05T05:46:10.576Z,11.64
2023-05-05T05:48:36.982Z,11.76
2023-05-05T05:51:03.557Z,12.11
2023-05-05T05:53:29.915Z,12.04
2023-05-05T05:55:56.287Z,12.43
2023-05-05T05:58:22.763Z,12.31
2023-05-05T06:00:49.596Z,12.28
2023-05-05T06:03:16.264Z,12.51
2023-05-05T06:05:42.756Z,12.70
2023-05-05T06:08:09.194Z,12.59
2023-05-05T06:10:35.651Z,12.84
2023-05-05T06:13:02.106Z,13.08
2023-05-05T06:15:28.557Z,13.22
2023-05-05T06:17:54.990Z,13.45
2023-05-05T06:20:21.399Z,13.59
2023-05-05T06:22:47.829Z,13.56
2023-05-05T06:25:14.234Z,13.94
2023-05-05T06:27:40.702Z,13.99
2023-05-05T06:30:07.776Z,13.70
2023-05-05T06:32:34.594Z,14.24
2023-05-05T06:35:01.021Z,14.46
2023-05-05T06:37:27.581Z,14.46
2023-05-05T06:39:54.033Z,14.65
2023-05-05T06:42:20.384Z,14.60
2023-05-05T06:44:47.026Z,14.64
2023-05-05T06:47:13.404Z,14.45
2023-05-05T06:49:39.913Z,15.46
2023-05-05T06:52:08.234Z,15.42
2023-05-05T06:54:34.664Z,15.96
2023-05-05T06:57:01.169Z,16.14
2023-05-05T06:59:27.680Z,16.94
2023-05-05T07:01:54.254Z,17.38
2023-05-05T07:04:21.385Z,16.90
2023-05-05T07:06:47.843Z,16.99
2023-05-05T07:09:15.748Z,17.12
2023-05-05T07:11:43.395Z,16.84
2023-05-05T07:14:09.768Z,18.49
2023-05-05T07:16:37.257Z,18.14
2023-05-05T07:19:06.156Z,18.31
2023-05-05T07:21:34.313Z,18.48
2023-05-05T07:24:01.380Z,19.02
2023-05-05T07:26:27.919Z,18.56
2023-05-05T07:28:57.240Z,18.55
2023-05-05T07:31:23.783Z,19.32
2023-05-05T07:33:50.336Z,19.81
2023-05-05T07:36:19.801Z,19.51
2023-05-05T07:38:46.365Z,19.39
2023-05-05T07:41:13.037Z,20.30
2023-05-05T07:43:44.530Z,20.03
2023-05-05T07:46:11.519Z,19.76
2023-05-05T07:48:39.132Z,19.61
2023-05-05T07:51:05.645Z,20.07
2023-05-05T07:53:32.560Z,19.72
2023-05-05T07:55:59.124Z,20.04
2023-05-05T07:58:25.841Z,20.07
2023-05-05T08:00:52.370Z,19.04
2023-05-05T08:03:21.636Z,20.19
2023-05-05T08:05:50.555Z,19.20
2023-05-05T08:08:18.214Z,19.78
2023-05-05T08:10:44.725Z,20.09
2023-05-05T08:13:11.185Z,20.06
2023-05-05T08:15:37.700Z,19.91
2023-05-05T08:18:04.276Z,20.14
2023-05-05T08:20:30.959Z,20.35
2023-05-05T08:22:57.433Z,19.96
2023-05-05T08:25:24.544Z,18.95
2023-05-05T08:27:51.050Z,19.17
2023-05-05T08:30:20.733Z,19.73
2023-05-05T08:32:47.255Z,19.87
2023-05-05T08:35:13.921Z,20.28
2023-05-05T08:37:40.485Z,20.70
2023-05-05T08:40:07.597Z,20.79
2023-05-05T08:42:38.678Z,20.89
2023-05-05T08:45:07.148Z,20.23
2023-05-05T08:47:34.863Z,20.08
2023-05-05T08:50:01.959Z,20.33
2023-05-05T08:52:31.684Z,20.43
2023-05-05T08:55:05.390Z,20.25
2023-05-05T08:57:46.260Z,19.89
2023-05-05T09:00:13.209Z,20.98
2023-05-05T09:02:42.848Z,20.31
2023-05-05T09:05:10.016Z,20.27
2023-05-05T09:07:37.577Z,20.28
2023-05-05T09:10:05.006Z,20.46
2023-05-05T09:12:31.858Z,20.24
2023-05-05T09:15:04.713Z,19.91
2023-05-05T09:17:31.704Z,20.34
2023-05-05T09:20:11.655Z,20.07
2023-05-05T09:22:43.588Z,20.51
2023-05-05T09:25:12.187Z,20.00
2023-05-05T09:27:43.455Z,20.65
2023-05-05T09:30:15.130Z,20.90
2023-05-05T09:32:49.587Z,20.71
2023-05-05T09:35:17.366Z,20.54
2023-05-05T09:37:44.296Z,21.01
2023-05-05T09:40:12.836Z,20.68
2023-05-05T09:42:40.174Z,21.30
2023-05-05T09:45:18.534Z,21.36
2023-05-05T09:47:48.957Z,21.30
2023-05-05T09:50:18.877Z,21.64
2023-05-05T09:52:57.212Z,21.42
2023-05-05T09:55:24.734Z,21.10
2023-05-05T09:57:51.659Z,20.85
2023-05-05T10:00:18.453Z,21.61
2023-05-05T10:02:45.369Z,21.89
2023-05-05T10:05:13.672Z,21.61
2023-05-05T10:07:42.460Z,21.50
2023-05-05T10:10:16.786Z,21.80
2023-05-05T10:12:46.447Z,21.44
2023-05-05T10:15:15.600Z,21.42
2023-05-05T10:20:19.066Z,21.41
2023-05-05T10:22:52.582Z,21.78
2023-05-05T10:25:28.584Z,21.60
2023-05-05T10:27:58.807Z,22.15
2023-05-05T10:30:32.743Z,22.29
2023-05-05T10:33:31.164Z,22.19
2023-05-05T10:36:02.437Z,21.52
2023-05-05T10:38:30.714Z,21.97
2023-05-05T10:40:59.083Z,21.84
2023-05-05T10:43:26.730Z,22.51
2023-05-05T10:45:54.145Z,22.27
2023-05-05T10:48:36.014Z,21.96
2023-05-05T10:51:12.019Z,21.74
2023-05-05T10:53:51.514Z,21.79
2023-05-05T10:56:26.604Z,21.91
2023-05-05T10:58:59.639Z,21.88
2023-05-05T11:01:34.654Z,21.86
2023-05-05T11:04:23.774Z,22.08
2023-05-05T11:07:10.286Z,21.88
2023-05-05T11:09:55.063Z,22.23
2023-05-05T11:12:21.583Z,21.87
2023-05-05T11:14:47.991Z,22.29
2023-05-05T11:17:44.116Z,22.42
2023-05-05T11:20:10.631Z,22.19
2023-05-05T11:23:05.404Z,22.20
2023-05-05T11:25:34.715Z,22.44
2023-05-05T11:28:08.534Z,22.64
2023-05-05T11:30:36.692Z,23.30
2023-05-05T11:33:29.051Z,22.42
2023-05-05T11:35:59.364Z,23.09
2023-05-05T11:38:58.623Z,22.86
2023-05-05T11:41:34.119Z,23.01
2023-05-05T11:44:16.636Z,22.63
2023-05-05T11:46:52.116Z,22.42
2023-05-05T11:49:29.185Z,22.27
2023-05-05T11:52:06.060Z,22.40
2023-05-05T11:54:32.758Z,22.51
2023-05-05T11:57:07.249Z,22.46
2023-05-05T11:59:36.408Z,22.18
2023-05-05T12:02:04.224Z,22.26
2023-05-05T12:04:31.510Z,22.25
2023-05-05T12:06:58.625Z,22.16
2023-05-05T12:09:25.041Z,22.24
2023-05-05T12:11:58.489Z,22.39
2023-05-05T12:14:25.588Z,22.82
2023-05-05T12:17:01.492Z,23.53
2023-05-05T12:19:33.328Z,22.63
2023-05-05T12:22:01.323Z,22.06
2023-05-05T12:24:27.983Z,21.57
2023-05-05T12:26:54.461Z,21.53
2023-05-05T12:29:25.270Z,21.59
2023-05-05T12:31:51.849Z,21.71
2023-05-05T12:34:18.750Z,22.09
2023-05-05T12:36:45.359Z,22.22
2023-05-05T12:39:12.258Z,22.77
2023-05-05T12:41:39.013Z,22.97
2023-05-05T12:44:05.484Z,22.89
2023-05-05T12:46:44.675Z,22.81
2023-05-05T12:49:11.475Z,22.66
2023-05-05T12:51:38.311Z,22.10
2023-05-05T12:54:09.527Z,22.10
2023-05-05T12:56:39.734Z,22.40
2023-05-05T12:59:07.994Z,22.18
2023-05-05T13:01:36.042Z,21.99
2023-05-05T13:04:11.155Z,21.80
2023-05-05T13:06:39.177Z,22.04
2023-05-05T13:09:06.621Z,22.06
2023-05-05T13:11:37.361Z,21.96
2023-05-05T13:14:04.189Z,22.09
2023-05-05T13:16:30.996Z,21.72
2023-05-05T13:18:57.869Z,22.27
2023-05-05T13:21:24.443Z,22.30
2023-05-05T13:23:50.855Z,22.18
2023-05-05T13:26:17.217Z,22.06
2023-05-05T13:28:43.558Z,22.10
2023-05-05T13:31:09.960Z,21.98
2023-05-05T13:33:36.410Z,22.04
2023-05-05T13:36:03.368Z,22.28
2023-05-05T13:38:32.118Z,22.40
2023-05-05T13:40:59.402Z,22.31
2023-05-05T13:43:26.145Z,22.72
2023-05-05T13:45:53.599Z,22.80
2023-05-05T13:48:20.172Z,22.41
2023-05-05T13:50:47.188Z,22.74
2023-05-05T13:53:13.941Z,22.89
2023-05-05T13:55:41.990Z,22.77
2023-05-05T13:58:08.546Z,22.20
2023-05-05T14:00:35.735Z,22.00
2023-05-05T14:03:02.038Z,22.34
2023-05-05T14:05:28.476Z,22.30
2023-05-05T14:07:55.314Z,22.62
2023-05-05T14:10:21.810Z,22.68
2023-05-05T14:12:48.467Z,22.46
2023-05-05T14:15:14.895Z,22.55
2023-05-05T14:17:41.300Z,22.49
2023-05-05T14:20:08.060Z,22.39
2023-05-05T14:22:34.395Z,22.56
2023-05-05T14:25:01.131Z,22.59
2023-05-05T14:27:27.532Z,22.74
2023-05-05T14:29:54.227Z,22.32
2023-05-05T14:32:20.700Z,22.46
2023-05-05T14:34:49.002Z,22.68
2023-05-05T14:37:16.890Z,22.94
2023-05-05T14:39:43.280Z,23.07
2023-05-05T14:42:09.605Z,23.06
2023-05-05T14:44:36.155Z,22.59
2023-05-05T14:47:02.603Z,22.35
2023-05-05T14:49:28.983Z,22.50
2023-05-05T14:51:56.794Z,22.23
2023-05-05T14:54:28.308Z,21.97
2023-05-05T14:56:55.269Z,21.49
2023-05-05T14:59:21.778Z,21.48
2023-05-05T15:01:48.316Z,21.60
2023-05-05T15:04:14.763Z,21.33
2023-05-05T15:06:41.151Z,21.71
2023-05-05T15:09:07.574Z,21.64
2023-05-05T15:11:33.960Z,21.57
2023-05-05T15:14:00.346Z,21.38
2023-05-05T15:16:26.771Z,21.32
2023-05-05T15:18:53.298Z,21.48
2023-05-05T15:21:19.689Z,21.40
2023-05-05T15:23:46.049Z,21.22
2023-05-05T15:26:12.530Z,20.94
2023-05-05T15:28:38.891Z,20.81
2023-05-05T15:31:06.332Z,20.67
2023-05-05T15:33:33.472Z,20.59
2023-05-05T15:36:00.412Z,20.37
2023-05-05T15:38:28.960Z,20.65
2023-05-05T15:40:55.434Z,20.65
2023-05-05T15:43:21.806Z,20.59
2023-05-05T15:45:48.174Z,20.44
2023-05-05T15:48:14.520Z,20.46
2023-05-05T15:50:40.886Z,20.74
2023-05-05T15:53:07.299Z,20.78
2023-05-05T15:55:34.035Z,20.83
2023-05-05T15:58:00.391Z,20.49
2023-05-05T16:00:26.809Z,20.45
2023-05-05T16:02:53.200Z,20.46
2023-05-05T16:05:22.115Z,20.31
2023-05-05T16:07:49.281Z,20.40
2023-05-05T16:10:16.807Z,20.44
2023-05-05T16:12:43.178Z,20.66
2023-05-05T16:15:10.359Z,20.72
2023-05-05T16:17:37.112Z,20.50
2023-05-05T16:20:03.961Z,20.28
2023-05-05T16:22:30.543Z,20.25
2023-05-05T16:24:56.902Z,20.08
2023-05-05T16:27:23.274Z,19.83
2023-05-05T16:29:49.634Z,20.03
2023-05-05T16:32:15.977Z,19.91
2023-05-05T16:34:42.362Z,19.79
2023-05-05T16:37:08.721Z,19.74
2023-05-05T16:39:39.963Z,19.82
2023-05-05T16:42:06.463Z,19.64
2023-05-05T16:44:32.826Z,19.64
2023-05-05T16:46:59.183Z,19.44
2023-05-05T16:49:26.010Z,19.32
2023-05-05T16:51:53.437Z,19.49
2023-05-05T16:54:19.835Z,19.47
2023-05-05T16:56:46.182Z,19.53
2023-05-05T16:59:13.084Z,19.44
2023-05-05T17:01:39.562Z,19.35
2023-05-05T17:04:05.962Z,19.26
2023-05-05T17:06:33.095Z,19.13
2023-05-05T17:08:59.867Z,19.16
2023-05-05T17:11:26.671Z,19.10
2023-05-05T17:13:53.015Z,19.01
2023-05-05T17:16:19.402Z,18.96
2023-05-05T17:18:45.772Z,19.06
2023-05-05T17:21:12.111Z,18.79
2023-05-05T17:23:38.456Z,18.81
2023-05-05T17:26:05.305Z,18.70
2023-05-05T17:28:31.859Z,18.68
2023-05-05T17:30:59.935Z,18.61
2023-05-05T17:33:26.361Z,18.61
2023-05-05T17:35:52.941Z,18.46
2023-05-05T17:38:19.353Z,18.40
2023-05-05T17:40:45.758Z,18.35
2023-05-05T17:43:12.166Z,18.42
2023-05-05T17:45:38.718Z,18.20
2023-05-05T17:48:05.493Z,18.12
2023-05-05T17:50:31.914Z,18.02
2023-05-05T17:52:58.286Z,17.92
2023-05-05T17:55:24.646Z,17.96
2023-05-05T17:57:51.025Z,17.93
2023-05-05T18:00:18.249Z,17.80
2023-05-05T18:02:44.767Z,17.77
2023-05-05T18:05:11.392Z,17.69
2023-05-05T18:07:38.628Z,17.67
2023-05-05T18:10:07.127Z,17.56
2023-05-05T18:12:33.662Z,17.51
2023-05-05T18:15:01.597Z,17.39
2023-05-05T18:17:27.973Z,17.35
2023-05-05T18:19:54.528Z,17.31
2023-05-05T18:22:21.791Z,17.29
2023-05-05T18:24:48.259Z,17.26
2023-05-05T18:27:14.714Z,17.21
2023-05-05T18:29:41.128Z,17.18
2023-05-05T18:32:07.536Z,17.08
2023-05-05T18:34:34.371Z,17.04
2023-05-05T18:37:00.784Z,17.06
2023-05-05T18:39:27.189Z,17.06
2023-05-05T18:41:53.646Z,16.92
2023-05-05T18:44:20.294Z,16.86
2023-05-05T18:46:49.728Z,16.85
2023-05-05T18:49:16.440Z,16.92
2023-05-05T18:51:43.457Z,16.94
2023-05-05T18:54:10.188Z,16.80
2023-05-05T18:56:36.794Z,16.90
2023-05-05T18:59:03.327Z,16.78
2023-05-05T19:01:29.727Z,16.83
2023-05-05T19:03:56.168Z,16.77
2023-05-05T19:06:22.594Z,16.69
2023-05-05T19:08:49.090Z,16.67
2023-05-05T19:11:15.599Z,16.74
2023-05-05T19:13:42.049Z,16.64
2023-05-05T19:16:08.575Z,16.61
2023-05-05T19:18:35.003Z,16.65
2023-05-05T19:21:01.644Z,16.64
2023-05-05T19:23:28.068Z,16.69
2023-05-05T19:25:54.505Z,16.51
2023-05-05T19:28:21.399Z,16.54
2023-05-05T19:30:49.168Z,16.55
2023-05-05T19:33:16.213Z,16.53
2023-05-05T19:35:43.719Z,16.54
2023-05-05T19:38:10.853Z,16.42
2023-05-05T19:40:38.907Z,16.48
2023-05-05T19:43:05.571Z,16.41
2023-05-05T19:45:33.539Z,16.33
2023-05-05T19:48:01.409Z,16.33
2023-05-05T19:50:29.831Z,16.23
2023-05-05T19:52:56.427Z,16.23
2023-05-05T19:55:22.947Z,16.29
2023-05-05T19:57:49.336Z,16.20
2023-05-05T20:00:16.122Z,16.13
2023-05-05T20:02:42.810Z,16.11
2023-05-05T20:05:11.489Z,16.12
2023-05-05T20:07:37.894Z,16.14
2023-05-05T20:10:04.639Z,16.00
2023-05-05T20:12:31.207Z,16.07
2023-05-05T20:14:57.620Z,16.00
2023-05-05T20:17:25.683Z,15.90
2023-05-05T20:19:52.368Z,15.86
2023-05-05T20:22:18.881Z,15.82
2023-05-05T20:24:45.279Z,15.90
2023-05-05T20:27:11.669Z,15.91
2023-05-05T20:29:38.129Z,15.80
2023-05-05T20:32:06.177Z,15.77
2023-05-05T20:34:32.560Z,15.66
2023-05-05T20:36:59.155Z,15.63
2023-05-05T20:39:25.921Z,15.58
2023-05-05T20:41:52.359Z,15.60
2023-05-05T20:44:18.782Z,15.54
2023-05-05T20:46:45.255Z,15.46
2023-05-05T20:49:11.722Z,15.35
2023-05-05T20:51:38.088Z,15.34
2023-05-05T20:54:04.891Z,15.30
2023-05-05T20:56:31.300Z,15.32
2023-05-05T20:58:57.779Z,15.22
2023-05-05T21:01:24.194Z,15.12
2023-05-05T21:03:50.638Z,15.20
2023-05-05T21:06:19.429Z,15.08
2023-05-05T21:08:47.124Z,15.03
2023-05-05T21:11:13.575Z,15.21
2023-05-05T21:13:40.155Z,15.15
2023-05-05T21:16:06.630Z,15.05
2023-05-05T21:18:33.080Z,14.89
2023-05-05T21:20:59.497Z,14.92
2023-05-05T21:23:26.154Z,15.00
2023-05-05T21:25:52.581Z,14.76
2023-05-05T21:28:19.096Z,14.78
2023-05-05T21:30:54.945Z,14.85
2023-05-05T21:33:31.322Z,14.70
2023-05-05T21:35:57.677Z,14.56
2023-05-05T21:38:24.070Z,14.52
2023-05-05T21:40:57.249Z,14.50
2023-05-05T21:43:25.276Z,14.35
2023-05-05T21:46:05.682Z,14.38
2023-05-05T21:48:32.616Z,14.29
2023-05-05T21:50:59.224Z,14.10
2023-05-05T21:53:25.612Z,13.95
2023-05-05T21:55:52.048Z,13.97
2023-05-05T21:58:18.461Z,13.94
2023-05-05T22:00:45.011Z,13.83
2023-05-05T22:03:11.539Z,13.80
2023-05-05T22:05:38.288Z,13.76
2023-05-05T22:08:04.827Z,13.75
2023-05-05T22:10:31.316Z,13.79
2023-05-05T22:12:58.234Z,13.63
2023-05-05T22:15:27.634Z,13.49
2023-05-05T22:17:56.526Z,13.47
2023-05-05T22:20:23.101Z,13.55
2023-05-05T22:22:49.460Z,13.60
2023-05-05T22:25:16.206Z,13.67
2023-05-05T22:27:42.830Z,13.47
2023-05-05T22:30:09.674Z,13.46
2023-05-05T22:32:36.016Z,13.48
2023-05-05T22:35:02.442Z,13.57
2023-05-05T22:37:28.822Z,13.45
2023-05-05T22:39:55.203Z,13.62
2023-05-05T22:42:21.578Z,13.63
2023-05-05T22:44:47.948Z,13.62
2023-05-05T22:47:14.377Z,13.63
2023-05-05T22:49:40.859Z,13.61
2023-05-05T22:52:07.489Z,13.40
2023-05-05T22:54:33.880Z,13.47
2023-05-05T22:57:00.258Z,13.41
2023-05-05T22:59:26.609Z,13.39
2023-05-05T23:01:52.989Z,13.39
2023-05-05T23:04:19.386Z,13.35
2023-05-05T23:06:46.041Z,13.28
2023-05-05T23:09:12.801Z,13.30
2023-05-05T23:11:39.222Z,13.21
2023-05-05T23:14:05.801Z,13.30
2023-05-05T23:16:32.171Z,13.32
2023-05-05T23:18:58.556Z,13.05
2023-05-05T23:21:24.900Z,13.08
2023-05-05T23:23:51.314Z,13.08
2023-05-05T23:26:17.685Z,12.97
2023-05-05T23:28:44.075Z,13.01
2023-05-05T23:31:10.448Z,13.04
2023-05-05T23:33:36.885Z,13.14
2023-05-05T23:36:03.909Z,13.03
2023-05-05T23:38:30.540Z,12.90
2023-05-05T23:40:56.900Z,12.69
2023-05-05T23:43:23.288Z,12.73
2023-05-05T23:45:49.708Z,12.78
2023-05-05T23:48:16.216Z,12.80
2023-05-05T23:50:42.622Z,12.65
2023-05-05T23:53:09.523Z,12.69
2023-05-05T23:55:35.859Z,12.55
2023-05-05T23:58:02.301Z,12.73
